To NAV CANADA Home Page Login to a new session Search on AWWS site Feedback and Comments Disclaimer Vers la page française équivalente Tips FAQ What's new on the site To the Forecasts and Observations / NOTAM section To "File a Flight Plan" website Publications and other links Update of the User's profile FIC Telephone Numbers My Weather Data Folder Route Weather Data Regional Weather Data Local Weather Data To the Forecasts and Observations / NOTAM section
Request Generated 04/25/2014 at 06:40:58 UTC . Weather information available at that time is displayed.

METAR/TAF

GREENWOOD/NS    

METAR CYZX 250600Z 35018G26KT 8SM -SHSN SCT012 OVC020 01/M00 A2969 RMK SC4SC4 WNDY HILL 01019G29KT PCPN VRY LGT SLP056=
METAR CYZX 250500Z 36012G17KT 8SM -SHSN SCT011 OVC019 01/M00 A2967 RMK SC4SC4 WNDY HILL 36018G27KT PCPN VRY LGT SLP048=
SPECI CYZX 250413Z 36013G19KT 8SM -SHSN SCT013 OVC020 RMK SC4SC4 WNDY HILL 02020G30KT=
METAR CYZX 250400Z 01014G19KT 5SM -SHSN SCT012 OVC022 01/M00 A2965 RMK SC4SC4 WNDY HILL 01022G32KT PCPN VRY LGT SLP042=

TAF CYZX 250530Z 2506/2606 36010G20KT P6SM -SN SCT010 OVC025 TEMPO
2506/2510 3SM -SN BKN010 OVC020
FM251000 01010KT P6SM -SHSN SCT015 OVC025 TEMPO 2510/2512 5SM -SN
OVC015
FM251600 34010G20KT P6SM SCT020 BKN030
FM251800 34010G20KT P6SM SCT030
BECMG 2600/2602 VRB03KT
RMK NXT FCST BY 251200Z=
Your time UTC time
Weather data provided by Environment Canada and NAV CANADA